Buffaloville, Indiana
Current Conditions -  °F | °C
As of 11:55 PM on Saturday 22 Nov 2014 (Local Time) from KHNB Reporting Station
Broken Clouds Broken Clouds  
Wind Chill: 54°   Ceiling: 7500
Heat Index: 54°   Visibility: 10mi
Dew Point: 37°   Wind: 9mph
Humidity: 54%   Direction: 170°S
Pressure: 30.01"   Gusts: NA
Location:  38.0467°N, 86.9637°W
Report Text: KHNB 230555Z AUTO 17008KT 10SM BKN075 12/03 A3001 RMK AO1 10140 20120 401700030 57010
Loading
Personal Weather Stations






























Interactive Weather Map New forecast layout! Learn more

10-Day Weather Forecast

Advertisements
Track Severe Weather on mobile